createdAt,value
2018-04-14T00:00:07.712Z,93.50
2018-04-14T00:02:35.376Z,93.50
2018-04-14T00:05:02.884Z,93.60
2018-04-14T00:07:30.409Z,93.80
2018-04-14T00:09:57.908Z,93.90
2018-04-14T00:12:25.417Z,94.20
2018-04-14T00:14:52.908Z,93.70
2018-04-14T00:17:20.425Z,93.80
2018-04-14T00:19:47.914Z,93.70
2018-04-14T00:22:16.196Z,93.90
2018-04-14T00:24:43.693Z,93.80
2018-04-14T00:27:11.208Z,93.80
2018-04-14T00:29:38.717Z,94.00
2018-04-14T00:32:07.013Z,94.20
2018-04-14T00:34:34.548Z,94.20
2018-04-14T00:37:02.841Z,94.10
2018-04-14T00:39:30.337Z,94.10
2018-04-14T00:41:58.641Z,94.00
2018-04-14T00:44:26.139Z,94.00
2018-04-14T00:46:53.663Z,94.00
2018-04-14T00:49:21.927Z,93.70
2018-04-14T00:51:49.467Z,93.70
2018-04-14T00:54:16.961Z,93.80
2018-04-14T00:56:44.498Z,93.60
2018-04-14T00:59:11.997Z,93.40
2018-04-14T01:01:39.521Z,93.40
2018-04-14T01:04:07.809Z,93.50
2018-04-14T01:06:36.084Z,93.60
2018-04-14T01:09:03.614Z,93.60
2018-04-14T01:11:31.126Z,93.30
2018-04-14T01:13:58.648Z,93.30
2018-04-14T01:16:26.141Z,93.10
2018-04-14T01:18:53.666Z,93.00
2018-04-14T01:21:21.234Z,93.10
2018-04-14T01:23:49.515Z,92.90
2018-04-14T01:26:17.776Z,93.00
2018-04-14T01:28:45.296Z,93.00
2018-04-14T01:31:12.800Z,93.10
2018-04-14T01:33:40.324Z,93.30
2018-04-14T01:36:08.585Z,93.50
2018-04-14T01:38:36.108Z,93.50
2018-04-14T01:41:03.609Z,93.70
2018-04-14T01:43:31.120Z,93.90
2018-04-14T01:45:59.386Z,94.40
2018-04-14T01:48:26.927Z,94.40
2018-04-14T01:50:54.440Z,94.30
2018-04-14T01:53:21.965Z,94.50
2018-04-14T01:55:49.460Z,94.60
2018-04-14T01:58:16.981Z,94.60
2018-04-14T02:00:44.489Z,94.80
2018-04-14T02:03:12.000Z,95.00
2018-04-14T02:05:40.266Z,95.50
2018-04-14T02:08:07.788Z,95.50
2018-04-14T02:10:35.299Z,95.50
2018-04-14T02:13:02.835Z,95.50
2018-04-14T02:15:30.332Z,95.40
2018-04-14T02:17:57.825Z,95.40
2018-04-14T02:20:25.339Z,95.80
2018-04-14T02:22:52.839Z,96.00
2018-04-14T02:25:20.357Z,95.80
2018-04-14T02:27:48.616Z,96.20
2018-04-14T02:30:16.137Z,96.10
2018-04-14T02:32:43.633Z,96.50
2018-04-14T02:35:11.151Z,96.60
2018-04-14T02:37:38.651Z,96.50
2018-04-14T02:40:06.157Z,96.50
2018-04-14T02:42:33.648Z,96.50
2018-04-14T02:45:01.172Z,96.50
2018-04-14T02:47:28.668Z,96.60
2018-04-14T02:49:56.199Z,96.60
2018-04-14T02:52:24.468Z,96.70
2018-04-14T02:54:52.753Z,96.70
2018-04-14T02:57:20.259Z,96.70
2018-04-14T02:59:47.772Z,96.80
2018-04-14T03:02:15.270Z,97.00
2018-04-14T03:04:43.556Z,97.40
2018-04-14T03:07:11.070Z,97.40
2018-04-14T03:09:38.581Z,97.30
2018-04-14T03:12:06.081Z,97.50
2018-04-14T03:14:33.596Z,97.40
2018-04-14T03:17:01.101Z,97.60
2018-04-14T03:19:29.224Z,97.50
2018-04-14T03:21:56.712Z,97.40
2018-04-14T03:24:24.229Z,97.40
2018-04-14T03:26:51.722Z,97.60
2018-04-14T03:29:19.997Z,97.90
2018-04-14T03:31:47.512Z,97.90
2018-04-14T03:34:15.040Z,97.80
2018-04-14T03:36:42.545Z,97.90
2018-04-14T03:39:10.044Z,98.10
2018-04-14T03:41:37.567Z,98.10
2018-04-14T03:44:05.829Z,98.40
2018-04-14T03:46:33.344Z,98.40
2018-04-14T03:49:00.850Z,99.10
2018-04-14T03:51:28.360Z,99.10
2018-04-14T03:53:56.625Z,99.40
2018-04-14T03:56:24.139Z,99.40
2018-04-14T03:58:52.404Z,99.40
2018-04-14T04:01:19.918Z,99.30
2018-04-14T04:03:47.417Z,99.30
2018-04-14T04:06:14.953Z,99.20
2018-04-14T04:08:42.453Z,98.70
2018-04-14T04:11:09.965Z,98.60
2018-04-14T04:13:37.455Z,98.50
2018-04-14T04:16:04.973Z,98.60
2018-04-14T04:18:44.203Z,98.50
2018-04-14T04:21:23.682Z,98.10
2018-04-14T04:24:02.965Z,98.10
2018-04-14T04:26:31.237Z,98.40
2018-04-14T04:28:58.732Z,98.40
2018-04-14T04:31:26.262Z,98.10
2018-04-14T04:33:53.765Z,98.00
2018-04-14T04:36:22.063Z,98.00
2018-04-14T04:38:50.316Z,98.00
2018-04-14T04:41:17.841Z,98.00
2018-04-14T04:43:45.338Z,98.10
2018-04-14T04:46:12.850Z,98.30
2018-04-14T04:48:40.344Z,98.40
2018-04-14T04:51:08.620Z,98.50
2018-04-14T04:53:36.880Z,98.00
2018-04-14T04:56:04.407Z,98.00
2018-04-14T04:58:31.948Z,97.10
2018-04-14T05:00:59.428Z,95.80
2018-04-14T05:03:27.717Z,94.10
2018-04-14T05:05:55.973Z,92.50
2018-04-14T05:08:23.485Z,92.50
2018-04-14T05:10:50.985Z,91.30
2018-04-14T05:13:18.508Z,90.30
2018-04-14T05:15:46.774Z,88.90
2018-04-14T05:18:14.297Z,88.80
2018-04-14T05:20:41.805Z,87.30
2018-04-14T05:23:09.324Z,84.80
2018-04-14T05:25:37.585Z,83.20
2018-04-14T05:28:05.125Z,83.20
2018-04-14T05:30:32.633Z,82.70
2018-04-14T05:33:00.159Z,83.10
2018-04-14T05:35:27.658Z,83.20
2018-04-14T05:37:55.175Z,84.70
2018-04-14T05:40:22.672Z,85.30
2018-04-14T05:42:50.242Z,86.00
2018-04-14T05:45:18.481Z,86.40
2018-04-14T05:47:46.003Z,86.40
2018-04-14T05:50:13.498Z,86.60
2018-04-14T05:52:41.006Z,87.30
2018-04-14T05:55:09.280Z,86.90
2018-04-14T05:57:36.803Z,86.90
2018-04-14T06:00:04.315Z,86.10
2018-04-14T06:02:31.836Z,86.00
2018-04-14T06:04:59.349Z,85.60
2018-04-14T06:07:26.857Z,85.00
2018-04-14T06:09:55.128Z,83.90
2018-04-14T06:12:23.405Z,84.00
2018-04-14T06:14:50.926Z,84.00
2018-04-14T06:17:18.424Z,84.00
2018-04-14T06:19:45.952Z,84.30
2018-04-14T06:22:14.270Z,84.60
2018-04-14T06:24:42.503Z,84.20
2018-04-14T06:27:10.016Z,84.20
2018-04-14T06:29:37.553Z,84.60
2018-04-14T06:32:05.050Z,84.40
2018-04-14T06:34:32.579Z,84.20
2018-04-14T06:37:00.082Z,82.60
2018-04-14T06:39:27.609Z,82.00
2018-04-14T06:41:55.125Z,81.90
2018-04-14T06:44:23.425Z,81.80
2018-04-14T06:46:50.936Z,81.80
2018-04-14T06:49:18.465Z,81.40
2018-04-14T06:51:45.965Z,80.80
2018-04-14T06:54:13.481Z,81.10
2018-04-14T06:56:40.976Z,80.70
2018-04-14T06:59:08.494Z,79.50
2018-04-14T07:01:36.001Z,79.50
2018-04-14T07:04:04.281Z,78.90
2018-04-14T07:06:31.789Z,78.90
2018-04-14T07:08:59.314Z,78.10
2018-04-14T07:11:26.818Z,77.70
2018-04-14T07:13:55.091Z,76.10
2018-04-14T07:16:23.363Z,76.20
2018-04-14T07:18:50.884Z,76.10
2018-04-14T07:21:18.430Z,76.10
2018-04-14T07:23:45.914Z,76.10
2018-04-14T07:26:13.444Z,76.10
2018-04-14T07:28:40.940Z,76.20
2018-04-14T07:31:09.238Z,76.20
2018-04-14T07:33:37.503Z,76.20
2018-04-14T07:36:05.030Z,76.10
2018-04-14T07:38:32.526Z,76.10
2018-04-14T07:41:00.067Z,76.20
2018-04-14T07:43:27.577Z,76.30
2018-04-14T07:45:55.102Z,75.50
2018-04-14T07:48:22.607Z,74.80
2018-04-14T07:50:50.127Z,73.90
2018-04-14T07:53:18.100Z,73.50
2018-04-14T07:55:46.393Z,72.50
2018-04-14T07:58:14.682Z,72.00
2018-04-14T08:00:42.279Z,72.10
2018-04-14T08:03:09.797Z,71.80
2018-04-14T08:05:37.335Z,71.30
2018-04-14T08:08:04.899Z,70.80
2018-04-14T08:10:32.419Z,70.60
2018-04-14T08:12:59.927Z,69.90
2018-04-14T08:15:27.492Z,69.90
2018-04-14T08:17:55.771Z,69.40
2018-04-14T08:20:24.093Z,69.20
2018-04-14T08:22:51.881Z,69.10
2018-04-14T08:25:19.972Z,68.70
2018-04-14T08:27:47.986Z,67.70
2018-04-14T08:30:15.599Z,67.90
2018-04-14T08:32:43.122Z,67.90
2018-04-14T08:35:10.735Z,67.90
2018-04-14T08:37:38.290Z,67.50
2018-04-14T08:40:06.604Z,67.10
2018-04-14T08:42:34.900Z,64.50
2018-04-14T08:45:02.425Z,64.60
2018-04-14T08:47:29.962Z,63.50
2018-04-14T08:49:57.494Z,63.60
2018-04-14T08:52:25.941Z,63.50
2018-04-14T08:54:53.474Z,63.50
2018-04-14T08:57:21.021Z,63.80
2018-04-14T08:59:49.313Z,63.00
2018-04-14T09:02:17.617Z,63.10
2018-04-14T09:04:45.903Z,63.30
2018-04-14T09:07:14.212Z,62.30
2018-04-14T09:09:41.758Z,62.20
2018-04-14T09:12:10.088Z,61.60
2018-04-14T09:14:37.612Z,61.50
2018-04-14T09:17:05.909Z,61.30
2018-04-14T09:19:34.224Z,61.10
2018-04-14T09:22:01.767Z,61.10
2018-04-14T09:24:30.044Z,61.10
2018-04-14T09:26:57.593Z,61.10
2018-04-14T09:29:25.147Z,60.90
2018-04-14T09:31:52.669Z,61.30
2018-04-14T09:34:20.991Z,59.80
2018-04-14T09:36:48.603Z,59.80
2018-04-14T09:39:16.537Z,60.80
2018-04-14T09:41:44.262Z,61.50
2018-04-14T09:44:12.576Z,62.20
2018-04-14T09:46:40.097Z,62.20
2018-04-14T09:49:07.599Z,61.40
2018-04-14T09:51:35.143Z,61.30
2018-04-14T09:54:02.663Z,60.50
2018-04-14T09:56:30.966Z,60.40
2018-04-14T09:58:59.258Z,60.10
2018-04-14T10:01:27.598Z,60.60
2018-04-14T10:03:55.110Z,60.60
2018-04-14T10:06:27.088Z,60.30
2018-04-14T10:08:55.378Z,59.50
2018-04-14T10:11:22.886Z,59.40
2018-04-14T10:13:50.409Z,59.30
2018-04-14T10:16:17.910Z,59.70
2018-04-14T10:18:45.471Z,59.10
2018-04-14T10:21:13.739Z,58.90
2018-04-14T10:23:42.003Z,58.90
2018-04-14T10:26:09.517Z,57.50
2018-04-14T10:28:37.833Z,57.60
2018-04-14T10:31:05.336Z,57.50
2018-04-14T10:33:33.629Z,57.10
2018-04-14T10:36:01.172Z,57.10
2018-04-14T10:38:28.702Z,55.90
2018-04-14T10:40:56.973Z,55.80
2018-04-14T10:43:24.498Z,55.80
2018-04-14T10:45:52.021Z,55.30
2018-04-14T10:48:19.558Z,55.60
2018-04-14T10:50:47.081Z,55.60
2018-04-14T10:53:15.394Z,55.80
2018-04-14T10:55:42.913Z,56.50
2018-04-14T10:58:10.422Z,56.40
2018-04-14T11:00:38.679Z,55.00
2018-04-14T11:03:06.219Z,55.00
2018-04-14T11:05:33.742Z,54.80
2018-04-14T11:08:02.031Z,53.90
2018-04-14T11:10:30.303Z,53.90
2018-04-14T11:12:57.830Z,53.80
2018-04-14T11:15:25.339Z,54.30
2018-04-14T11:17:52.873Z,54.50
2018-04-14T11:20:20.396Z,54.10
2018-04-14T11:22:47.955Z,54.80
2018-04-14T11:25:15.479Z,54.00
2018-04-14T11:27:42.975Z,53.60
2018-04-14T11:30:10.518Z,52.60
2018-04-14T11:32:38.032Z,52.60
2018-04-14T11:35:05.543Z,51.80
2018-04-14T11:37:33.830Z,51.00
2018-04-14T11:40:02.127Z,51.00
2018-04-14T11:42:30.454Z,51.60
2018-04-14T11:44:57.966Z,51.60
2018-04-14T11:47:26.245Z,51.40
2018-04-14T11:49:53.780Z,51.40
2018-04-14T11:52:21.293Z,51.60
2018-04-14T11:54:48.824Z,50.40
2018-04-14T11:57:16.343Z,51.00
2018-04-14T11:59:44.648Z,50.20
2018-04-14T12:02:12.923Z,50.30
2018-04-14T12:04:40.467Z,50.30
2018-04-14T12:07:07.978Z,50.10
2018-04-14T12:09:36.279Z,49.40
2018-04-14T12:12:03.791Z,49.40
2018-04-14T12:14:32.100Z,50.40
2018-04-14T12:16:59.591Z,50.30
2018-04-14T12:19:27.876Z,48.90
2018-04-14T12:21:56.153Z,48.60
2018-04-14T12:24:23.676Z,48.60
2018-04-14T12:26:51.190Z,48.10
2018-04-14T12:29:18.770Z,47.50
2018-04-14T12:31:46.275Z,48.00
2018-04-14T12:34:13.804Z,48.40
2018-04-14T12:36:41.348Z,48.90
2018-04-14T12:39:08.877Z,47.20
2018-04-14T12:41:36.430Z,47.70
2018-04-14T12:44:03.933Z,47.30
2018-04-14T12:46:31.470Z,47.50
2018-04-14T12:48:58.985Z,46.80
2018-04-14T12:51:26.499Z,46.20
2018-04-14T12:53:54.003Z,46.30
2018-04-14T12:56:22.309Z,45.70
2018-04-14T12:58:49.853Z,45.70
2018-04-14T13:01:18.154Z,46.60
2018-04-14T13:03:45.677Z,46.60
2018-04-14T13:06:13.187Z,46.60
2018-04-14T13:08:41.467Z,47.20
2018-04-14T13:11:08.994Z,47.20
2018-04-14T13:13:36.505Z,47.80
2018-04-14T13:16:04.059Z,47.50
2018-04-14T13:18:31.560Z,47.10
2018-04-14T13:20:59.092Z,46.70
2018-04-14T13:23:26.613Z,46.70
2018-04-14T13:25:54.925Z,47.20
2018-04-14T13:28:22.432Z,47.10
2018-04-14T13:30:49.949Z,47.10
2018-04-14T13:33:18.217Z,46.70
2018-04-14T13:35:45.735Z,46.70
2018-04-14T13:38:13.302Z,46.60
2018-04-14T13:40:40.829Z,45.10
2018-04-14T13:43:08.359Z,45.20
2018-04-14T13:45:35.901Z,45.60
2018-04-14T13:48:04.193Z,45.30
2018-04-14T13:50:31.715Z,45.20
2018-04-14T13:52:59.249Z,43.90
2018-04-14T13:55:26.755Z,43.80
2018-04-14T13:57:54.287Z,43.50
2018-04-14T14:00:21.805Z,43.50
2018-04-14T14:02:49.332Z,43.30
2018-04-14T14:05:19.848Z,43.40
2018-04-14T14:07:48.140Z,43.90
2018-04-14T14:10:16.429Z,43.50
2018-04-14T14:12:43.956Z,43.50
2018-04-14T14:15:12.231Z,42.90
2018-04-14T14:17:39.765Z,42.90
2018-04-14T14:20:08.070Z,42.00
2018-04-14T14:22:35.608Z,42.00
2018-04-14T14:25:03.105Z,43.30
2018-04-14T14:27:31.409Z,42.90
2018-04-14T14:29:59.671Z,43.20
2018-04-14T14:32:27.960Z,43.00
2018-04-14T14:34:56.234Z,42.90
2018-04-14T14:37:23.781Z,42.90
2018-04-14T14:39:51.559Z,41.80
2018-04-14T14:42:19.090Z,41.60
2018-04-14T14:44:46.584Z,41.80
2018-04-14T14:47:14.114Z,41.80
2018-04-14T14:49:42.400Z,41.70
2018-04-14T14:52:10.709Z,41.00
2018-04-14T14:54:38.225Z,40.90
2018-04-14T14:57:05.722Z,40.20
2018-04-14T14:59:33.259Z,40.10
2018-04-14T15:02:00.760Z,39.80
2018-04-14T15:04:28.704Z,39.40
2018-04-14T15:06:56.241Z,39.00
2018-04-14T15:09:24.558Z,36.30
2018-04-14T15:11:52.077Z,36.30
2018-04-14T15:14:19.605Z,37.40
2018-04-14T15:16:47.100Z,38.20
2018-04-14T15:19:14.637Z,37.90
2018-04-14T15:21:42.142Z,38.20
2018-04-14T15:24:09.663Z,40.10
2018-04-14T15:26:37.173Z,41.00
2018-04-14T15:29:04.717Z,40.80
2018-04-14T15:31:32.243Z,40.90
2018-04-14T15:33:59.780Z,41.70
2018-04-14T15:36:28.054Z,41.60
2018-04-14T15:38:55.577Z,41.60
2018-04-14T15:41:23.096Z,41.70
2018-04-14T15:43:50.626Z,41.60
2018-04-14T15:46:18.921Z,43.50
2018-04-14T15:48:47.215Z,42.70
2018-04-14T15:51:15.484Z,42.90
2018-04-14T15:53:43.009Z,42.90
2018-04-14T15:56:10.504Z,43.10
2018-04-14T15:58:38.046Z,43.20
2018-04-14T16:01:05.614Z,43.40
2018-04-14T16:03:33.154Z,42.80
2018-04-14T16:06:01.438Z,42.50
2018-04-14T16:08:29.010Z,42.40
2018-04-14T16:10:57.279Z,43.10
2018-04-14T16:13:24.834Z,43.10
2018-04-14T16:15:52.380Z,43.30
2018-04-14T16:18:19.916Z,43.70
2018-04-14T16:20:48.220Z,43.60
2018-04-14T16:23:16.499Z,44.00
2018-04-14T16:25:44.805Z,44.10
2018-04-14T16:28:13.083Z,44.40
2018-04-14T16:30:41.389Z,44.40
2018-04-14T16:33:09.665Z,44.60
2018-04-14T16:35:37.971Z,43.60
2018-04-14T16:38:05.477Z,43.50
2018-04-14T16:40:33.043Z,43.90
2018-04-14T16:43:00.552Z,43.80
2018-04-14T16:45:28.090Z,44.60
2018-04-14T16:47:55.617Z,44.50
2018-04-14T16:50:23.914Z,44.50
2018-04-14T16:52:52.192Z,45.10
2018-04-14T16:55:20.499Z,45.00
2018-04-14T16:57:48.002Z,45.00
2018-04-14T17:00:15.789Z,45.00
2018-04-14T17:02:43.296Z,45.30
2018-04-14T17:05:10.839Z,45.60
2018-04-14T17:07:38.327Z,45.70
2018-04-14T17:10:05.851Z,45.40
2018-04-14T17:12:33.368Z,45.20
2018-04-14T17:15:00.907Z,45.60
2018-04-14T17:17:28.416Z,45.80
2018-04-14T17:19:55.961Z,46.20
2018-04-14T17:22:23.458Z,45.90
2018-04-14T17:24:50.986Z,45.90
2018-04-14T17:27:18.489Z,47.30
2018-04-14T17:29:46.135Z,47.20
2018-04-14T17:32:13.674Z,47.30
2018-04-14T17:34:41.193Z,47.70
2018-04-14T17:37:08.714Z,48.20
2018-04-14T17:39:36.993Z,48.80
2018-04-14T17:42:05.362Z,50.00
2018-04-14T17:44:32.864Z,49.90
2018-04-14T17:47:01.370Z,51.90
2018-04-14T17:49:28.892Z,51.90
2018-04-14T17:51:56.418Z,52.80
2018-04-14T17:54:23.921Z,53.60
2018-04-14T17:56:51.436Z,54.00
2018-04-14T17:59:19.713Z,55.10
2018-04-14T18:01:47.260Z,55.00
2018-04-14T18:04:14.774Z,55.70
2018-04-14T18:06:43.070Z,56.00
2018-04-14T18:09:10.578Z,56.00
2018-04-14T18:11:38.093Z,56.50
2018-04-14T18:14:06.373Z,58.00
2018-04-14T18:16:33.892Z,57.70
2018-04-14T18:19:01.395Z,58.00
2018-04-14T18:21:28.926Z,58.40
2018-04-14T18:23:56.441Z,58.80
2018-04-14T18:26:23.978Z,59.30
2018-04-14T18:28:51.487Z,59.50
2018-04-14T18:31:19.014Z,59.90
2018-04-14T18:33:46.529Z,60.30
2018-04-14T18:36:14.797Z,61.00
2018-04-14T18:38:42.333Z,61.00
2018-04-14T18:41:09.847Z,61.40
2018-04-14T18:43:37.369Z,61.60
2018-04-14T18:46:05.644Z,62.30
2018-04-14T18:48:33.174Z,62.10
2018-04-14T18:51:00.701Z,62.50
2018-04-14T18:53:28.993Z,63.00
2018-04-14T18:55:57.269Z,62.90
2018-04-14T18:58:25.554Z,63.40
2018-04-14T19:00:53.820Z,64.00
2018-04-14T19:03:21.352Z,63.90
2018-04-14T19:05:48.861Z,64.20
2018-04-14T19:08:16.411Z,64.50
2018-04-14T19:10:43.914Z,64.80
2018-04-14T19:13:11.444Z,65.00
2018-04-14T19:15:38.946Z,65.50
2018-04-14T19:18:06.479Z,65.10
2018-04-14T19:20:33.977Z,65.30
2018-04-14T19:23:01.513Z,65.50
2018-04-14T19:25:29.021Z,65.80
2018-04-14T19:27:56.536Z,65.90
2018-04-14T19:30:24.815Z,66.40
2018-04-14T19:32:52.334Z,66.30
2018-04-14T19:35:19.842Z,66.50
2018-04-14T19:37:47.509Z,66.90
2018-04-14T19:40:14.933Z,67.10
2018-04-14T19:42:42.457Z,67.20
2018-04-14T19:45:09.975Z,67.50
2018-04-14T19:47:37.467Z,67.10
2018-04-14T19:50:05.753Z,66.90
2018-04-14T19:52:33.291Z,66.90
2018-04-14T19:55:00.805Z,67.10
2018-04-14T19:57:28.299Z,67.50
2018-04-14T19:59:55.825Z,68.20
2018-04-14T20:02:23.329Z,67.40
2018-04-14T20:04:50.871Z,67.80
2018-04-14T20:07:18.374Z,68.00
2018-04-14T20:09:46.669Z,66.90
2018-04-14T20:12:14.181Z,66.80
2018-04-14T20:14:42.472Z,66.50
2018-04-14T20:17:10.731Z,66.10
2018-04-14T20:19:38.306Z,66.10
2018-04-14T20:22:05.761Z,66.10
2018-04-14T20:24:33.289Z,66.10
2018-04-14T20:27:00.780Z,66.50
2018-04-14T20:29:28.302Z,66.20
2018-04-14T20:31:56.568Z,66.80
2018-04-14T20:34:24.093Z,66.70
2018-04-14T20:36:51.601Z,66.30
2018-04-14T20:39:19.120Z,66.30
2018-04-14T20:41:47.389Z,66.70
2018-04-14T20:44:14.912Z,66.70
2018-04-14T20:46:42.487Z,67.10
2018-04-14T20:49:10.731Z,68.50
2018-04-14T20:51:39.002Z,68.40
2018-04-14T20:54:06.542Z,68.30
2018-04-14T20:56:34.040Z,68.90
2018-04-14T20:59:01.605Z,69.20
2018-04-14T21:01:29.064Z,69.30
2018-04-14T21:03:56.609Z,69.30
2018-04-14T21:06:24.118Z,69.20
2018-04-14T21:08:51.633Z,69.20
2018-04-14T21:11:19.148Z,69.30
2018-04-14T21:13:46.652Z,68.10
2018-04-14T21:16:14.188Z,68.00
2018-04-14T21:18:41.687Z,68.50
2018-04-14T21:21:09.556Z,69.50
2018-04-14T21:23:37.191Z,67.80
2018-04-14T21:26:04.826Z,67.90
2018-04-14T21:28:33.114Z,68.20
2018-04-14T21:31:01.415Z,68.10
2018-04-14T21:33:29.689Z,69.10
2018-04-14T21:35:57.205Z,69.00
2018-04-14T21:38:24.709Z,69.00
2018-04-14T21:40:52.234Z,68.60
2018-04-14T21:43:19.756Z,68.70
2018-04-14T21:45:47.286Z,68.30
2018-04-14T21:48:14.789Z,68.20
2018-04-14T21:50:42.312Z,68.70
2018-04-14T21:53:09.811Z,68.90
2018-04-14T21:55:37.345Z,69.00
2018-04-14T21:58:05.609Z,69.00
2018-04-14T22:00:33.134Z,68.90
2018-04-14T22:03:00.639Z,68.90
2018-04-14T22:05:28.174Z,69.30
2018-04-14T22:07:55.674Z,69.10
2018-04-14T22:10:23.202Z,68.80
2018-04-14T22:12:50.692Z,68.80
2018-04-14T22:15:18.223Z,68.80
2018-04-14T22:17:46.496Z,68.70
2018-04-14T22:20:14.023Z,68.80
2018-04-14T22:22:41.520Z,69.20
2018-04-14T22:25:09.071Z,69.60
2018-04-14T22:27:36.597Z,70.00
2018-04-14T22:30:04.880Z,71.20
2018-04-14T22:32:32.397Z,70.80
2018-04-14T22:34:59.930Z,71.00
2018-04-14T22:37:28.212Z,71.00
2018-04-14T22:39:56.490Z,71.90
2018-04-14T22:42:24.041Z,71.50
2018-04-14T22:44:51.541Z,71.80
2018-04-14T22:47:19.066Z,71.60
2018-04-14T22:49:46.569Z,72.00
2018-04-14T22:52:14.083Z,72.60
2018-04-14T22:54:41.592Z,72.80
2018-04-14T22:57:09.112Z,72.30
2018-04-14T22:59:37.385Z,71.70
2018-04-14T23:02:04.915Z,71.70
2018-04-14T23:04:32.445Z,71.00
2018-04-14T23:07:00.749Z,71.80
2018-04-14T23:09:28.283Z,71.80
2018-04-14T23:11:55.833Z,71.80
2018-04-14T23:14:23.341Z,72.00
2018-04-14T23:16:51.625Z,73.00
2018-04-14T23:19:19.192Z,73.00
2018-04-14T23:21:46.673Z,73.70
2018-04-14T23:24:14.169Z,73.90
2018-04-14T23:26:41.717Z,74.10
2018-04-14T23:29:09.994Z,75.20
2018-04-14T23:31:37.523Z,75.20
2018-04-14T23:34:05.017Z,75.20
2018-04-14T23:36:32.516Z,75.20
2018-04-14T23:39:01.710Z,74.50
2018-04-14T23:41:29.217Z,75.10
2018-04-14T23:43:57.403Z,75.10
2018-04-14T23:46:24.912Z,75.00
2018-04-14T23:48:52.453Z,75.00
2018-04-14T23:51:19.954Z,75.30
2018-04-14T23:53:47.484Z,75.40
2018-04-14T23:56:15.748Z,75.60
2018-04-14T23:58:43.263Z,75.60
